sensor_id;sensor_type;location;lat;lon;timestamp;pressure;altitude;pressure_sealevel;temperature;humidity
33189;BME280;52601;53.070;10.600;2022-11-30T19:48:30;102356.28;;;4.81;100.00
33189;BME280;52601;53.070;10.600;2022-11-30T19:52:04;102416.16;;;5.40;100.00
33189;BME280;52601;53.070;10.600;2022-11-30T19:55:14;102390.97;;;5.01;100.00
33189;BME280;52601;53.070;10.600;2022-11-30T19:58:39;102340.66;;;4.60;100.00
33189;BME280;52601;53.070;10.600;2022-11-30T20:01:40;102375.38;;;4.97;100.00
33189;BME280;52601;53.070;10.600;2022-11-30T20:05:12;102366.66;;;4.81;100.00
33189;BME280;52601;53.070;10.600;2022-11-30T20:08:14;102426.53;;;5.30;100.00
33189;BME280;52601;53.070;10.600;2022-11-30T20:11:30;102363.25;;;4.87;100.00
33189;BME280;52601;53.070;10.600;2022-11-30T20:14:40;102353.69;;;4.77;100.00
33189;BME280;52601;53.070;10.600;2022-11-30T20:17:37;102373.66;;;4.94;100.00
33189;BME280;52601;53.070;10.600;2022-11-30T20:20:37;102338.09;;;4.81;100.00
33189;BME280;52601;53.070;10.600;2022-11-30T20:23:52;102391.78;;;4.79;100.00
33189;BME280;52601;53.070;10.600;2022-11-30T20:27:10;102371.88;;;4.78;100.00
33189;BME280;52601;53.070;10.600;2022-11-30T20:30:31;102426.50;;;5.19;100.00
33189;BME280;52601;53.070;10.600;2022-11-30T20:33:37;102431.69;;;5.04;100.00
33189;BME280;52601;53.070;10.600;2022-11-30T21:03:10;102403.91;;;4.83;100.00
33189;BME280;52601;53.070;10.600;2022-11-30T21:06:58;102375.31;;;4.59;100.00
33189;BME280;52601;53.070;10.600;2022-11-30T21:10:15;102385.72;;;4.74;100.00
33189;BME280;52601;53.070;10.600;2022-11-30T21:17:39;102417.75;;;4.73;100.00
33189;BME280;52601;53.070;10.600;2022-11-30T21:21:20;102395.25;;;4.69;100.00
33189;BME280;52601;53.070;10.600;2022-11-30T21:24:45;102384.81;;;4.68;100.00
33189;BME280;52601;53.070;10.600;2022-11-30T21:28:10;102434.28;;;4.92;100.00
33189;BME280;52601;53.070;10.600;2022-11-30T21:31:30;102416.03;;;4.71;100.00
33189;BME280;52601;53.070;10.600;2022-11-30T21:35:16;102379.63;;;4.57;100.00
33189;BME280;52601;53.070;10.600;2022-11-30T21:42:26;102418.63;;;4.72;100.00
33189;BME280;52601;53.070;10.600;2022-11-30T21:49:39;102367.47;;;4.50;100.00
33189;BME280;52601;53.070;10.600;2022-11-30T21:53:00;102436.84;;;4.83;100.00
33189;BME280;52601;53.070;10.600;2022-11-30T21:56:40;102368.34;;;4.49;100.00
33189;BME280;52601;53.070;10.600;2022-11-30T22:00:02;102390.84;;;4.56;100.00
33189;BME280;52601;53.070;10.600;2022-11-30T22:07:03;102422.13;;;4.79;100.00
33189;BME280;52601;53.070;10.600;2022-11-30T22:10:07;102382.19;;;4.54;100.00
33189;BME280;52601;53.070;10.600;2022-11-30T22:13:03;102420.38;;;4.85;100.00
33189;BME280;52601;53.070;10.600;2022-11-30T22:16:16;102364.03;;;4.51;100.00
33189;BME280;52601;53.070;10.600;2022-11-30T22:19:26;102377.03;;;4.57;100.00
33189;BME280;52601;53.070;10.600;2022-11-30T22:22:50;102403.00;;;4.57;100.00
33189;BME280;52601;53.070;10.600;2022-11-30T22:26:12;102390.88;;;4.53;100.00
33189;BME280;52601;53.070;10.600;2022-11-30T22:29:31;102396.09;;;4.67;100.00
33189;BME280;52601;53.070;10.600;2022-11-30T22:32:43;102435.16;;;4.92;100.00
33189;BME280;52601;53.070;10.600;2022-11-30T22:35:59;102395.22;;;4.57;100.00
33189;BME280;52601;53.070;10.600;2022-11-30T22:39:14;102361.34;;;4.36;100.00
33189;BME280;52601;53.070;10.600;2022-11-30T22:42:36;102403.03;;;4.63;100.00
33189;BME280;52601;53.070;10.600;2022-11-30T22:45:37;102409.03;;;4.55;100.00
33189;BME280;52601;53.070;10.600;2022-11-30T22:48:37;102439.41;;;4.69;100.00
33189;BME280;52601;53.070;10.600;2022-11-30T22:51:39;102370.81;;;4.19;100.00
33189;BME280;52601;53.070;10.600;2022-11-30T22:54:44;102433.28;;;4.55;100.00
33189;BME280;52601;53.070;10.600;2022-11-30T22:57:44;102398.56;;;4.35;100.00
33189;BME280;52601;53.070;10.600;2022-11-30T23:01:18;102432.41;;;4.56;100.00
33189;BME280;52601;53.070;10.600;2022-11-30T23:04:24;102429.88;;;4.67;100.00
33189;BME280;52601;53.070;10.600;2022-11-30T23:07:24;102359.53;;;4.20;100.00
33189;BME280;52601;53.070;10.600;2022-11-30T23:10:26;102382.97;;;4.32;100.00
33189;BME280;52601;53.070;10.600;2022-11-30T23:13:26;102408.09;;;4.36;100.00
33189;BME280;52601;53.070;10.600;2022-11-30T23:16:18;102406.38;;;4.35;100.00
33189;BME280;52601;53.070;10.600;2022-11-30T23:19:24;102412.38;;;4.25;100.00
33189;BME280;52601;53.070;10.600;2022-11-30T23:22:19;102392.50;;;4.36;100.00
33189;BME280;52601;53.070;10.600;2022-11-30T23:25:12;102400.28;;;4.36;100.00
33189;BME280;52601;53.070;10.600;2022-11-30T23:28:18;102389.03;;;4.34;100.00
33189;BME280;52601;53.070;10.600;2022-11-30T23:31:30;102435.91;;;4.64;100.00
33189;BME280;52601;53.070;10.600;2022-11-30T23:34:20;102448.81;;;4.43;100.00
33189;BME280;52601;53.070;10.600;2022-11-30T23:37:25;102369.00;;;4.01;100.00
33189;BME280;52601;53.070;10.600;2022-11-30T23:40:25;102374.22;;;4.07;100.00
33189;BME280;52601;53.070;10.600;2022-11-30T23:43:27;102373.38;;;4.16;100.00
33189;BME280;52601;53.070;10.600;2022-11-30T23:46:38;102442.75;;;4.44;100.00
33189;BME280;52601;53.070;10.600;2022-11-30T23:49:36;102397.59;;;4.15;100.00
33189;BME280;52601;53.070;10.600;2022-11-30T23:53:03;102373.34;;;4.07;100.00
33189;BME280;52601;53.070;10.600;2022-11-30T23:56:14;102369.03;;;4.10;100.00
33189;BME280;52601;53.070;10.600;2022-11-30T23:59:31;102392.44;;;4.19;100.00
